Time;durP1;ratioP1;P1;durP2;ratioP2;P2;SDS_P1;SDS_P2;PMS_P1;PMS_P2;Temp;Humidity;BMP_temperature;BMP_pressure;BME280_temperature;BME280_humidity;BME280_pressure;Samples;Min_cycle;Max_cycle;Signal;HPM_P1;HPM_P2
2022/09/16 00:01:20;;;;;;;10.77;4.90;;;13.00;99.90;;;;;;5114125;27;20102;-71
2022/09/16 00:03:46;;;;;;;9.07;4.43;;;13.00;99.90;;;;;;5107125;28;20075;-71
2022/09/16 00:06:20;;;;;;;9.52;4.25;;;13.00;99.90;;;;;;5090583;27;20043;-70
2022/09/16 00:08:48;;;;;;;8.20;4.75;;;13.00;99.90;;;;;;5092604;28;20036;-70
2022/09/16 00:11:15;;;;;;;16.33;4.28;;;13.00;99.90;;;;;;5105593;28;20985;-70
2022/09/16 00:13:41;;;;;;;10.88;4.53;;;13.00;99.90;;;;;;5110570;28;20032;-71
2022/09/16 00:16:09;;;;;;;9.15;4.50;;;13.00;99.90;;;;;;5108738;28;20056;-71
2022/09/16 00:18:34;;;;;;;8.77;4.22;;;13.00;99.90;;;;;;5086742;28;20040;-70
2022/09/16 00:21:00;;;;;;;9.25;3.78;;;13.00;99.90;;;;;;5095190;28;20118;-71
2022/09/16 00:23:26;;;;;;;10.20;3.95;;;13.00;99.90;;;;;;5111257;27;20488;-72
2022/09/16 00:25:53;;;;;;;9.77;3.55;;;13.00;99.90;;;;;;5108210;28;20489;-71
2022/09/16 00:28:21;;;;;;;7.93;3.60;;;13.00;99.90;;;;;;5090631;28;20031;-70
2022/09/16 00:30:47;;;;;;;7.65;3.85;;;13.00;99.90;;;;;;5088756;28;20035;-70
2022/09/16 00:33:13;;;;;;;8.77;3.50;;;13.00;99.90;;;;;;5092824;27;20032;-70
2022/09/16 00:35:39;;;;;;;9.25;3.83;;;13.00;99.90;;;;;;5119916;27;20036;-69
2022/09/16 00:38:04;;;;;;;7.93;3.50;;;13.00;99.90;;;;;;5107954;27;20035;-70
2022/09/16 00:40:30;;;;;;;10.40;3.67;;;13.00;99.90;;;;;;5091137;28;20084;-71
2022/09/16 00:42:55;;;;;;;10.30;3.47;;;13.00;99.90;;;;;;5114311;27;20089;-70
2022/09/16 00:45:26;;;;;;;12.05;3.20;;;13.00;99.90;;;;;;5098747;28;20035;-73
2022/09/16 00:48:15;;;;;;;9.85;3.28;;;12.90;99.90;;;;;;5082543;27;20552;-70
2022/09/16 00:50:50;;;;;;;11.07;3.70;;;12.90;99.90;;;;;;5099280;28;20031;-70
2022/09/16 00:53:23;;;;;;;11.23;3.50;;;12.90;99.90;;;;;;5088706;28;20035;-71
2022/09/16 00:55:52;;;;;;;13.60;3.20;;;12.90;99.90;;;;;;5123355;27;20027;-71
2022/09/16 00:58:26;;;;;;;8.20;3.22;;;12.90;99.90;;;;;;5111563;27;20023;-69
2022/09/16 01:00:51;;;;;;;8.32;3.20;;;12.90;99.90;;;;;;5089669;27;20134;-70
2022/09/16 01:03:18;;;;;;;5.75;3.10;;;12.90;99.90;;;;;;5093993;28;20111;-72
2022/09/16 01:05:44;;;;;;;10.38;3.15;;;12.80;99.90;;;;;;5103470;28;20030;-70
2022/09/16 01:08:11;;;;;;;6.53;2.83;;;12.80;99.90;;;;;;5107190;28;20070;-70
2022/09/16 01:10:39;;;;;;;7.00;2.75;;;12.80;99.90;;;;;;5112225;27;20027;-69
2022/09/16 01:13:08;;;;;;;7.90;2.67;;;12.80;99.90;;;;;;5110810;27;20043;-70
2022/09/16 01:15:45;;;;;;;12.35;3.30;;;12.70;99.90;;;;;;5098692;28;20114;-70
2022/09/16 01:18:17;;;;;;;6.00;2.85;;;12.70;99.90;;;;;;5090995;28;20153;-70
2022/09/16 01:20:57;;;;;;;9.10;2.92;;;12.70;99.90;;;;;;5091118;27;20381;-70
2022/09/16 01:23:53;;;;;;;8.10;2.30;;;12.70;99.90;;;;;;5113751;27;20031;-69
2022/09/16 01:26:28;;;;;;;9.52;3.13;;;12.70;99.90;;;;;;5113152;27;20032;-70
2022/09/16 01:29:18;;;;;;;9.35;2.55;;;12.70;99.90;;;;;;5089199;28;20036;-70
2022/09/16 01:32:06;;;;;;;8.20;2.50;;;12.60;99.90;;;;;;5093087;27;20436;-69
2022/09/16 01:34:44;;;;;;;6.88;2.38;;;12.60;99.90;;;;;;5105177;28;20034;-70
2022/09/16 01:37:45;;;;;;;9.90;3.05;;;12.60;99.90;;;;;;5109138;27;20035;-70
2022/09/16 01:40:27;;;;;;;6.35;2.28;;;12.60;99.90;;;;;;5083402;28;20865;-71
2022/09/16 01:43:20;;;;;;;7.55;2.03;;;12.60;99.90;;;;;;5105999;28;20062;-69
2022/09/16 01:46:12;;;;;;;6.35;2.28;;;12.60;99.90;;;;;;5073500;28;20122;-70
2022/09/16 01:48:44;;;;;;;9.18;2.50;;;12.50;99.90;;;;;;5128082;27;20043;-70
2022/09/16 01:51:26;;;;;;;8.98;2.33;;;12.50;99.90;;;;;;5095642;27;20038;-69
2022/09/16 01:54:25;;;;;;;5.03;2.30;;;12.50;99.90;;;;;;5095367;28;20031;-70
2022/09/16 01:56:59;;;;;;;4.57;1.92;;;12.50;99.90;;;;;;5122382;27;20055;-70
2022/09/16 01:59:30;;;;;;;7.20;2.10;;;12.50;99.90;;;;;;5104031;27;20032;-72
2022/09/16 02:02:19;;;;;;;6.90;2.20;;;12.40;99.90;;;;;;5095905;28;20028;-71
2022/09/16 02:04:53;;;;;;;5.60;2.20;;;12.40;99.90;;;;;;5108505;28;20031;-71
2022/09/16 02:07:22;;;;;;;6.93;1.90;;;12.40;99.90;;;;;;5108733;27;20499;-73
2022/09/16 02:09:55;;;;;;;5.93;2.42;;;12.40;99.90;;;;;;5091585;28;20058;-73
2022/09/16 02:12:27;;;;;;;7.80;2.38;;;12.40;99.90;;;;;;5096437;28;20084;-71
2022/09/16 02:14:58;;;;;;;7.13;2.30;;;12.40;99.90;;;;;;5088499;28;20565;-69
2022/09/16 02:17:28;;;;;;;8.55;2.20;;;12.40;99.90;;;;;;5090427;28;20088;-68
2022/09/16 02:20:00;;;;;;;6.47;2.08;;;12.40;99.90;;;;;;5087374;28;20031;-69
2022/09/16 02:22:40;;;;;;;6.88;2.17;;;12.40;99.90;;;;;;5090884;27;20484;-70
2022/09/16 02:25:08;;;;;;;8.02;1.88;;;12.40;99.90;;;;;;5105948;28;20042;-72
2022/09/16 02:27:36;;;;;;;4.20;1.83;;;12.30;99.90;;;;;;5090063;28;20031;-70
2022/09/16 02:30:08;;;;;;;5.90;1.73;;;12.30;99.90;;;;;;5106702;27;20027;-69
2022/09/16 02:32:38;;;;;;;5.55;1.80;;;12.30;99.90;;;;;;5106288;27;20463;-70
2022/09/16 02:35:06;;;;;;;;;;;12.30;99.90;;;;;;5111489;27;20037;-70
2022/09/16 02:37:41;;;;;;;8.20;2.38;;;12.30;99.90;;;;;;5121296;27;19912;-69
2022/09/16 02:40:14;;;;;;;6.72;2.28;;;12.30;99.90;;;;;;5115296;27;20020;-69
2022/09/16 02:42:39;;;;;;;4.60;1.85;;;12.30;99.90;;;;;;5118105;28;20412;-70
2022/09/16 02:45:07;;;;;;;8.32;2.42;;;12.30;99.90;;;;;;5117294;28;20114;-70
2022/09/16 02:47:55;;;;;;;8.10;2.20;;;12.30;99.90;;;;;;5089980;28;20055;-71
2022/09/16 02:50:39;;;;;;;4.72;2.05;;;12.30;99.90;;;;;;5100973;28;20161;-69
2022/09/16 02:53:28;;;;;;;7.47;2.10;;;12.30;99.90;;;;;;5125306;28;20031;-70
2022/09/16 02:56:01;;;;;;;5.70;1.95;;;12.20;99.90;;;;;;5104082;28;20497;-70
2022/09/16 02:58:26;;;;;;;7.18;2.20;;;12.20;99.90;;;;;;5112367;28;20032;-69
2022/09/16 03:00:54;;;;;;;6.75;2.40;;;12.20;99.90;;;;;;5087663;28;20056;-70
2022/09/16 03:03:20;;;;;;;8.82;1.80;;;12.10;99.90;;;;;;5126136;28;20035;-70
2022/09/16 03:06:12;;;;;;;8.38;2.70;;;12.10;99.90;;;;;;5108998;28;20114;-70
2022/09/16 03:08:38;;;;;;;8.95;2.10;;;12.10;99.90;;;;;;5109950;28;20535;-70
2022/09/16 03:11:22;;;;;;;7.07;1.90;;;12.10;99.90;;;;;;5109757;28;20039;-70
2022/09/16 03:14:18;;;;;;;5.30;1.80;;;12.00;99.90;;;;;;5087081;28;20032;-70
2022/09/16 03:17:03;;;;;;;4.53;2.00;;;12.10;99.90;;;;;;5088968;28;20115;-69
2022/09/16 03:19:46;;;;;;;7.13;2.00;;;12.00;99.90;;;;;;5086190;28;20062;-70
2022/09/16 03:22:25;;;;;;;4.25;1.90;;;12.00;99.90;;;;;;5117220;28;20504;-71
2022/09/16 03:25:14;;;;;;;6.22;2.10;;;11.90;99.90;;;;;;5088718;28;20028;-70
2022/09/16 03:27:52;;;;;;;3.90;1.55;;;11.90;99.90;;;;;;5069028;28;20036;-70
2022/09/16 03:30:18;;;;;;;6.38;1.80;;;11.90;99.90;;;;;;5094113;27;20093;-71
2022/09/16 03:33:05;;;;;;;4.97;1.73;;;11.90;99.90;;;;;;5113831;27;20027;-70
2022/09/16 03:35:39;;;;;;;5.90;1.77;;;11.90;99.90;;;;;;5094362;27;20404;-70
2022/09/16 03:38:07;;;;;;;5.90;1.73;;;11.90;99.90;;;;;;5114107;27;20136;-70
2022/09/16 03:40:34;;;;;;;5.10;2.20;;;11.80;99.90;;;;;;5093276;27;20485;-70
2022/09/16 03:42:59;;;;;;;6.03;2.10;;;11.90;99.90;;;;;;5104402;27;20036;-73
2022/09/16 03:45:25;;;;;;;6.95;1.80;;;11.80;99.90;;;;;;5107827;28;20444;-69
2022/09/16 03:47:52;;;;;;;4.65;2.20;;;11.80;99.90;;;;;;5111372;27;20139;-73
2022/09/16 03:50:19;;;;;;;7.70;2.03;;;11.80;99.90;;;;;;5072483;28;20416;-70
2022/09/16 03:52:45;;;;;;;6.32;2.10;;;11.80;99.90;;;;;;5072814;28;20086;-71
2022/09/16 03:55:11;;;;;;;6.00;2.03;;;11.80;99.90;;;;;;5108570;28;20043;-69
2022/09/16 03:57:37;;;;;;;7.95;2.13;;;11.80;99.90;;;;;;5091048;28;20024;-69
2022/09/16 04:00:05;;;;;;;6.75;1.90;;;11.80;99.90;;;;;;5089874;28;20562;-72
2022/09/16 04:02:31;;;;;;;7.82;1.95;;;11.80;99.90;;;;;;5090301;28;20375;-70
2022/09/16 04:04:56;;;;;;;5.93;1.80;;;11.80;99.90;;;;;;5099691;27;20050;-70
2022/09/16 04:07:22;;;;;;;7.03;2.08;;;11.70;99.90;;;;;;5090964;28;20032;-70
2022/09/16 04:09:47;;;;;;;6.32;1.85;;;11.70;99.90;;;;;;5078308;28;20066;-70
2022/09/16 04:12:13;;;;;;;7.15;1.85;;;11.70;99.90;;;;;;5110877;28;20588;-69
2022/09/16 04:14:39;;;;;;;6.18;2.10;;;11.70;99.90;;;;;;5110133;28;20020;-71
2022/09/16 04:17:04;;;;;;;8.80;1.80;;;11.70;99.90;;;;;;5104114;27;20066;-70
2022/09/16 04:19:30;;;;;;;12.55;2.25;;;11.60;99.90;;;;;;5092380;28;20038;-70
2022/09/16 04:21:56;;;;;;;6.13;1.90;;;11.60;99.90;;;;;;5115667;27;20096;-70
2022/09/16 04:24:21;;;;;;;7.70;2.10;;;11.60;99.90;;;;;;5118078;27;20035;-72
2022/09/16 04:26:47;;;;;;;6.57;1.70;;;11.60;99.90;;;;;;5111956;27;20461;-70
2022/09/16 04:29:12;;;;;;;7.57;1.67;;;11.50;99.90;;;;;;5109752;27;20034;-70
2022/09/16 04:31:38;;;;;;;5.40;1.80;;;11.50;99.90;;;;;;5104417;27;20035;-71
2022/09/16 04:34:04;;;;;;;7.03;2.00;;;11.50;99.90;;;;;;5111398;27;20040;-70
2022/09/16 04:36:30;;;;;;;6.25;2.05;;;11.50;99.90;;;;;;5091130;28;20035;-70
2022/09/16 04:38:56;;;;;;;6.35;1.70;;;11.40;99.90;;;;;;5094082;27;20055;-72
2022/09/16 04:41:24;;;;;;;4.13;1.60;;;11.40;99.90;;;;;;5100031;28;20067;-70
2022/09/16 04:43:52;;;;;;;9.98;1.75;;;11.30;99.90;;;;;;5116239;27;20029;-69
2022/09/16 04:46:18;;;;;;;4.80;1.80;;;11.30;99.90;;;;;;5116350;27;20031;-69
2022/09/16 04:48:47;;;;;;;6.50;1.80;;;11.30;99.90;;;;;;5081869;28;20044;-69
2022/09/16 04:51:13;;;;;;;5.53;1.80;;;11.30;99.90;;;;;;5079470;28;20060;-70
2022/09/16 04:53:42;;;;;;;6.60;1.90;;;11.20;99.90;;;;;;5070602;28;20518;-69
2022/09/16 04:56:18;;;;;;;5.68;1.65;;;11.20;99.90;;;;;;5074871;28;20033;-69
2022/09/16 04:58:50;;;;;;;5.97;1.40;;;11.20;99.90;;;;;;5084641;28;20035;-69
2022/09/16 05:01:19;;;;;;;7.40;1.70;;;11.10;99.90;;;;;;5072167;28;20029;-69
2022/09/16 05:03:47;;;;;;;6.78;1.77;;;11.10;99.90;;;;;;5070682;28;20032;-69
2022/09/16 05:06:21;;;;;;;5.10;1.70;;;11.10;99.90;;;;;;5072905;28;20145;-69
2022/09/16 05:08:49;;;;;;;8.55;1.55;;;11.10;99.90;;;;;;5083744;28;20078;-70
2022/09/16 05:11:18;;;;;;;4.55;1.63;;;11.00;99.90;;;;;;5066615;28;20486;-71
2022/09/16 05:13:43;;;;;;;5.22;1.55;;;11.00;99.90;;;;;;5055169;28;20060;-69
2022/09/16 05:16:14;;;;;;;6.75;1.73;;;11.00;99.90;;;;;;5059734;28;20076;-69
2022/09/16 05:18:41;;;;;;;4.95;1.77;;;10.90;99.90;;;;;;5079600;28;20032;-70
2022/09/16 05:21:10;;;;;;;4.85;1.42;;;10.90;99.90;;;;;;5084200;28;20122;-71
2022/09/16 05:23:36;;;;;;;3.47;1.58;;;10.90;99.90;;;;;;5063955;28;20435;-71
2022/09/16 05:26:11;;;;;;;6.05;1.60;;;10.90;99.90;;;;;;5069600;28;20039;-69
2022/09/16 05:28:38;;;;;;;6.38;1.90;;;10.90;99.90;;;;;;5060280;28;20062;-70
2022/09/16 05:31:11;;;;;;;4.60;1.40;;;10.90;99.90;;;;;;5064823;28;20047;-70
2022/09/16 05:33:38;;;;;;;4.65;1.30;;;10.90;99.90;;;;;;5059995;28;20557;-70
2022/09/16 05:36:12;;;;;;;6.32;1.80;;;10.90;99.90;;;;;;5084155;28;20642;-71
2022/09/16 05:38:38;;;;;;;6.35;1.70;;;10.90;99.90;;;;;;5077637;28;20032;-70
2022/09/16 05:41:04;;;;;;;2.83;1.40;;;10.80;99.90;;;;;;5066883;28;20035;-70
2022/09/16 05:43:31;;;;;;;4.93;1.50;;;10.80;99.90;;;;;;5065252;28;20040;-71
2022/09/16 05:45:57;;;;;;;5.15;1.42;;;10.90;99.90;;;;;;5059288;28;20394;-71
2022/09/16 05:48:23;;;;;;;6.07;1.50;;;10.90;99.90;;;;;;5076881;28;20051;-69
2022/09/16 05:50:59;;;;;;;4.97;1.45;;;10.90;99.90;;;;;;5092111;28;20370;-69
2022/09/16 05:53:25;;;;;;;4.55;1.50;;;10.90;99.90;;;;;;5087667;28;20125;-71
2022/09/16 05:56:02;;;;;;;5.85;1.42;;;10.90;99.90;;;;;;5090909;28;20104;-72
2022/09/16 05:58:29;;;;;;;4.95;1.30;;;10.90;99.90;;;;;;5099781;28;20482;-71
2022/09/16 06:01:11;;;;;;;7.38;1.50;;;10.90;99.90;;;;;;5085628;28;20028;-70
2022/09/16 06:03:39;;;;;;;6.47;1.40;;;10.90;99.90;;;;;;5081161;28;20032;-71
2022/09/16 06:06:13;;;;;;;6.10;1.73;;;10.90;99.90;;;;;;5074304;28;20028;-72
2022/09/16 06:08:39;;;;;;;5.97;1.50;;;10.90;99.90;;;;;;5072182;28;20127;-69
2022/09/16 06:11:08;;;;;;;3.50;1.20;;;10.90;99.90;;;;;;5081310;28;20028;-69
2022/09/16 06:13:34;;;;;;;4.47;1.45;;;10.90;99.90;;;;;;5077839;28;20032;-71
2022/09/16 06:16:00;;;;;;;3.58;1.13;;;10.90;99.90;;;;;;5082373;28;20046;-72
2022/09/16 06:18:28;;;;;;;6.93;1.65;;;10.90;99.90;;;;;;5084771;28;20039;-71
2022/09/16 06:20:54;;;;;;;7.13;1.40;;;11.00;99.90;;;;;;5084274;28;20024;-70
2022/09/16 06:23:19;;;;;;;5.68;1.40;;;10.90;99.90;;;;;;5072356;28;20071;-70
2022/09/16 06:25:46;;;;;;;4.75;1.40;;;10.90;99.90;;;;;;5085602;28;20080;-69
2022/09/16 06:28:12;;;;;;;4.68;1.30;;;11.00;99.90;;;;;;5083532;28;20482;-68
2022/09/16 06:30:38;;;;;;;5.07;1.48;;;11.00;99.90;;;;;;5083008;28;20031;-69
2022/09/16 06:33:04;;;;;;;7.38;1.40;;;11.00;99.90;;;;;;5074350;28;20048;-69
2022/09/16 06:35:30;;;;;;;5.55;1.50;;;11.00;99.90;;;;;;5086091;28;20039;-69
2022/09/16 06:37:56;;;;;;;4.75;1.33;;;11.10;99.90;;;;;;5093481;28;20024;-69
2022/09/16 06:40:21;;;;;;;8.57;1.65;;;11.10;99.90;;;;;;5087770;28;20406;-69
2022/09/16 06:42:47;;;;;;;6.07;1.38;;;11.10;99.90;;;;;;5084942;28;20447;-70
2022/09/16 06:45:13;;;;;;;4.60;1.30;;;11.10;99.90;;;;;;5088179;28;20027;-69
2022/09/16 06:47:38;;;;;;;5.75;1.50;;;11.10;99.90;;;;;;5097102;28;20065;-71
2022/09/16 06:50:05;;;;;;;6.60;1.55;;;11.10;99.90;;;;;;5104114;28;20036;-71
2022/09/16 06:52:31;;;;;;;2.55;1.10;;;11.10;99.90;;;;;;5102898;28;20031;-70
2022/09/16 06:54:57;;;;;;;3.38;0.88;;;11.20;99.90;;;;;;5109757;28;20488;-69
2022/09/16 06:57:22;;;;;;;5.85;1.52;;;11.20;99.90;;;;;;5087028;28;20027;-70
2022/09/16 06:59:49;;;;;;;4.95;1.50;;;11.20;99.90;;;;;;5105544;28;20089;-71
2022/09/16 07:02:15;;;;;;;4.47;1.10;;;11.20;99.90;;;;;;5107478;28;20035;-69
2022/09/16 07:04:41;;;;;;;4.38;1.20;;;11.20;99.90;;;;;;5089089;28;20031;-70
2022/09/16 07:07:07;;;;;;;5.10;1.50;;;11.30;99.90;;;;;;5092602;28;20459;-71
2022/09/16 07:09:33;;;;;;;6.30;1.50;;;11.30;99.90;;;;;;5108389;27;20142;-69
2022/09/16 07:11:59;;;;;;;6.22;1.63;;;11.30;99.90;;;;;;5095590;27;20035;-70
2022/09/16 07:14:26;;;;;;;4.28;1.40;;;11.40;99.90;;;;;;5104453;27;20488;-70
2022/09/16 07:16:52;;;;;;;11.07;1.65;;;11.40;99.90;;;;;;5097849;27;20027;-71
2022/09/16 07:19:18;;;;;;;5.53;1.50;;;11.40;99.90;;;;;;5105799;28;20043;-71
2022/09/16 07:21:44;;;;;;;5.25;1.30;;;11.40;99.90;;;;;;5085633;28;20028;-70
2022/09/16 07:24:12;;;;;;;4.40;1.48;;;11.40;99.90;;;;;;5091311;28;20042;-70
2022/09/16 07:26:39;;;;;;;3.92;1.38;;;11.40;99.90;;;;;;5098230;28;20480;-71
2022/09/16 07:29:06;;;;;;;5.90;1.55;;;11.40;99.90;;;;;;5111525;28;20128;-70
2022/09/16 07:31:34;;;;;;;4.70;1.30;;;11.30;99.90;;;;;;5111708;28;20032;-70
2022/09/16 07:34:01;;;;;;;6.70;1.70;;;11.30;99.90;;;;;;5120896;27;20480;-70
2022/09/16 07:36:30;;;;;;;6.95;1.40;;;11.30;99.90;;;;;;5112322;27;20031;-72
2022/09/16 07:38:57;;;;;;;7.93;1.98;;;11.40;99.90;;;;;;5105243;28;20089;-70
2022/09/16 07:41:32;;;;;;;6.28;1.60;;;11.50;99.90;;;;;;5089470;28;20031;-70
2022/09/16 07:43:59;;;;;;;5.53;1.35;;;11.50;99.90;;;;;;5092437;28;20532;-71
2022/09/16 07:46:27;;;;;;;6.40;1.70;;;11.50;99.90;;;;;;5110814;28;20803;-71
2022/09/16 07:48:54;;;;;;;6.07;1.52;;;11.60;99.90;;;;;;5092569;28;20059;-71
2022/09/16 07:51:22;;;;;;;5.53;1.58;;;11.70;99.90;;;;;;5111005;28;20074;-70
2022/09/16 07:53:58;;;;;;;4.53;1.40;;;11.90;99.90;;;;;;5092656;28;20023;-69
2022/09/16 07:56:24;;;;;;;7.53;1.42;;;12.00;99.90;;;;;;5092330;28;20036;-70
2022/09/16 07:58:52;;;;;;;5.97;1.52;;;12.30;99.90;;;;;;5111010;28;20043;-70
2022/09/16 08:01:18;;;;;;;10.38;1.67;;;12.40;99.90;;;;;;5111398;28;20545;-70
2022/09/16 08:03:45;;;;;;;7.13;1.75;;;12.70;99.90;;;;;;5110570;28;20119;-72
2022/09/16 08:06:15;;;;;;;6.13;1.85;;;12.80;99.90;;;;;;5092329;28;20036;-70
2022/09/16 08:08:42;;;;;;;7.25;1.25;;;12.90;99.90;;;;;;5110589;28;20043;-72
2022/09/16 08:11:08;;;;;;;5.55;1.60;;;13.00;99.90;;;;;;5110811;28;20152;-72
2022/09/16 08:13:35;;;;;;;4.38;1.30;;;12.90;99.90;;;;;;5110520;28;20448;-70
2022/09/16 08:16:13;;;;;;;4.63;1.30;;;12.90;99.90;;;;;;5097223;28;20028;-71
2022/09/16 08:18:39;;;;;;;4.60;1.48;;;13.00;99.90;;;;;;5089902;28;20036;-70
2022/09/16 08:21:06;;;;;;;5.03;1.60;;;13.00;99.90;;;;;;5090030;28;20054;-70
2022/09/16 08:23:33;;;;;;;7.30;2.00;;;13.00;99.90;;;;;;5088965;28;20451;-70
2022/09/16 08:26:00;;;;;;;5.10;1.63;;;13.10;99.90;;;;;;5077726;28;20474;-70
2022/09/16 08:28:27;;;;;;;4.20;1.55;;;13.20;99.90;;;;;;5090357;28;20036;-72
2022/09/16 08:30:53;;;;;;;8.20;2.28;;;13.20;99.90;;;;;;5071951;28;20044;-69
2022/09/16 08:33:21;;;;;;;6.47;1.73;;;13.30;99.90;;;;;;5101433;27;20023;-71
2022/09/16 08:36:07;;;;;;;12.35;6.55;;;13.30;99.90;;;;;;5087129;27;20031;-71
2022/09/16 08:38:33;;;;;;;14.52;7.15;;;13.30;99.90;;;;;;5082927;28;20035;-70
2022/09/16 08:41:24;;;;;;;5.05;1.73;;;13.40;99.90;;;;;;5107622;27;20042;-70
2022/09/16 08:44:02;;;;;;;6.80;1.92;;;13.40;99.90;;;;;;5069590;28;20036;-70
2022/09/16 08:46:44;;;;;;;4.88;1.95;;;13.40;99.90;;;;;;5071051;28;20028;-71
2022/09/16 08:49:31;;;;;;;9.80;2.40;;;13.50;99.90;;;;;;5089788;28;20194;-70
2022/09/16 08:51:59;;;;;;;10.13;2.83;;;13.60;99.90;;;;;;5090018;28;20039;-70
2022/09/16 08:54:31;;;;;;;6.57;2.55;;;13.60;99.90;;;;;;5089511;28;20044;-69
2022/09/16 08:57:02;;;;;;;8.15;2.63;;;13.80;99.90;;;;;;5090327;28;20093;-70
2022/09/16 08:59:34;;;;;;;6.40;2.38;;;13.90;99.90;;;;;;5091806;27;20030;-71
2022/09/16 09:02:17;;;;;;;7.75;2.67;;;14.10;99.90;;;;;;5100382;28;20696;-70
2022/09/16 09:04:43;;;;;;;6.70;2.65;;;14.20;99.90;;;;;;5089652;28;20068;-70
2022/09/16 09:07:47;;;;;;;7.55;2.30;;;14.40;99.90;;;;;;5090884;28;20598;-69
2022/09/16 09:10:45;;;;;;;5.90;1.90;;;14.60;99.90;;;;;;5109908;28;20030;-72
2022/09/16 09:13:40;;;;;;;7.88;2.10;;;14.80;99.90;;;;;;5090460;28;20528;-70
2022/09/16 09:16:18;;;;;;;5.22;2.00;;;15.00;99.90;;;;;;5090862;28;20028;-70
2022/09/16 09:18:44;;;;;;;7.15;1.70;;;15.10;99.90;;;;;;5109501;28;20042;-70
2022/09/16 09:21:36;;;;;;;4.68;1.58;;;15.20;99.90;;;;;;5090961;28;20020;-70
2022/09/16 09:24:17;;;;;;;5.75;1.65;;;15.20;99.90;;;;;;5109268;28;20102;-70
2022/09/16 09:27:06;;;;;;;7.25;2.00;;;15.20;99.90;;;;;;5109586;28;20023;-70
2022/09/16 09:29:48;;;;;;;6.68;1.70;;;15.30;99.90;;;;;;5108675;28;20031;-71
2022/09/16 09:32:25;;;;;;;5.65;2.20;;;15.40;99.90;;;;;;5109291;28;20474;-70
2022/09/16 09:35:18;;;;;;;6.20;1.80;;;15.50;99.90;;;;;;5091296;28;20080;-70
2022/09/16 09:38:21;;;;;;;6.47;1.83;;;15.50;99.90;;;;;;5088743;28;20036;-70
2022/09/16 09:41:03;;;;;;;5.70;1.70;;;15.60;99.90;;;;;;5089035;28;20060;-70
2022/09/16 09:43:46;;;;;;;3.42;1.48;;;15.80;99.90;;;;;;5088963;28;20524;-71
2022/09/16 09:46:30;;;;;;;5.70;1.42;;;16.00;99.90;;;;;;5088786;28;20031;-70
2022/09/16 09:49:27;;;;;;;4.97;1.73;;;16.00;99.90;;;;;;5088714;28;20104;-70
2022/09/16 09:51:55;;;;;;;8.32;1.70;;;16.00;99.90;;;;;;5088841;28;20482;-70
2022/09/16 09:54:24;;;;;;;4.57;1.60;;;16.10;99.90;;;;;;5070291;28;20497;-71
2022/09/16 09:57:11;;;;;;;4.55;1.42;;;16.10;99.90;;;;;;5074339;27;20051;-71
2022/09/16 10:00:11;;;;;;;3.28;1.13;;;16.30;99.90;;;;;;5085594;28;20052;-71
2022/09/16 10:02:42;;;;;;;3.67;1.10;;;16.40;99.90;;;;;;5105594;28;20040;-69
2022/09/16 10:05:26;;;;;;;5.18;1.33;;;16.40;98.90;;;;;;5090893;28;20062;-71
2022/09/16 10:07:54;;;;;;;7.68;1.35;;;16.50;99.20;;;;;;5108367;28;20053;-70
2022/09/16 10:10:22;;;;;;;4.20;1.10;;;16.60;98.60;;;;;;5108625;28;20097;-70
2022/09/16 10:12:49;;;;;;;3.72;1.17;;;16.70;98.70;;;;;;5108561;28;20031;-70
2022/09/16 10:15:24;;;;;;;5.60;1.40;;;16.70;98.10;;;;;;5108049;28;20044;-71
2022/09/16 10:17:54;;;;;;;4.00;1.20;;;16.70;98.30;;;;;;5090049;28;20481;-70
2022/09/16 10:20:28;;;;;;;5.43;1.30;;;16.50;97.60;;;;;;5108516;28;20059;-69
2022/09/16 10:23:09;;;;;;;3.28;1.27;;;16.20;99.00;;;;;;5108386;28;20030;-71
2022/09/16 10:25:35;;;;;;;4.43;1.40;;;16.20;99.90;;;;;;5087957;28;20545;-70
2022/09/16 10:28:04;;;;;;;3.42;1.20;;;16.10;99.00;;;;;;5069472;28;20131;-70
2022/09/16 10:30:47;;;;;;;3.38;1.20;;;15.90;99.10;;;;;;5090799;28;20030;-70
2022/09/16 10:33:40;;;;;;;4.32;1.30;;;15.80;98.80;;;;;;5108277;28;20078;-69
2022/09/16 10:36:09;;;;;;;4.47;1.30;;;15.80;99.10;;;;;;5089763;28;20501;-70
2022/09/16 10:38:40;;;;;;;4.63;1.30;;;16.00;97.90;;;;;;5108218;28;20032;-71
2022/09/16 10:41:08;;;;;;;4.28;1.35;;;16.20;97.80;;;;;;5108385;28;20027;-70
2022/09/16 10:43:36;;;;;;;3.63;1.02;;;16.40;96.90;;;;;;5105260;28;20548;-70
2022/09/16 10:46:04;;;;;;;6.03;1.33;;;16.50;96.30;;;;;;5092481;28;20378;-69
2022/09/16 10:48:31;;;;;;;4.25;1.10;;;16.40;95.80;;;;;;5089182;28;20504;-72
2022/09/16 10:51:01;;;;;;;6.97;1.50;;;16.40;96.00;;;;;;5094677;28;20035;-72
2022/09/16 10:53:37;;;;;;;4.18;1.48;;;16.60;95.30;;;;;;5107689;28;20032;-70
2022/09/16 10:56:05;;;;;;;3.50;1.30;;;17.20;95.50;;;;;;5108048;28;20076;-70
2022/09/16 10:58:31;;;;;;;3.50;1.10;;;17.50;94.20;;;;;;5085708;28;20032;-70
2022/09/16 11:00:57;;;;;;;4.03;1.30;;;17.40;93.10;;;;;;5069163;28;20405;-69
2022/09/16 11:03:48;;;;;;;3.05;1.13;;;17.40;91.80;;;;;;5102707;28;20028;-71
2022/09/16 11:06:31;;;;;;;5.20;1.10;;;17.40;91.20;;;;;;5108095;28;20034;-71
2022/09/16 11:09:23;;;;;;;3.75;1.27;;;17.70;89.10;;;;;;5107762;28;20040;-70
2022/09/16 11:12:30;;;;;;;2.88;1.00;;;17.80;89.10;;;;;;5089245;28;20059;-74
2022/09/16 11:15:17;;;;;;;3.33;1.02;;;17.70;86.30;;;;;;5082527;28;20493;-70
2022/09/16 11:17:51;;;;;;;4.72;1.10;;;17.70;86.30;;;;;;5090580;28;20597;-70
2022/09/16 11:20:40;;;;;;;3.05;1.00;;;17.60;83.90;;;;;;5105450;28;20535;-69
2022/09/16 11:23:14;;;;;;;5.35;1.33;;;17.60;87.00;;;;;;5093753;28;20695;-72
2022/09/16 11:25:45;;;;;;;5.32;1.00;;;17.60;86.00;;;;;;5073939;28;20493;-71
2022/09/16 11:28:33;;;;;;;3.17;1.08;;;17.60;85.20;;;;;;5081020;28;20047;-71
2022/09/16 11:31:38;;;;;;;5.95;1.00;;;17.70;83.90;;;;;;5099590;28;20509;-72
2022/09/16 11:34:16;;;;;;;4.35;0.90;;;17.70;83.40;;;;;;5105983;28;20633;-70
2022/09/16 11:36:50;;;;;;;4.47;1.00;;;17.50;82.90;;;;;;5107754;28;20082;-70
2022/09/16 11:39:41;;;;;;;2.65;0.75;;;17.50;80.40;;;;;;5088928;28;20084;-70
2022/09/16 11:42:30;;;;;;;3.95;1.08;;;17.40;78.60;;;;;;5107216;28;20027;-69
2022/09/16 11:45:26;;;;;;;2.88;0.80;;;19.70;75.50;;;;;;5107143;28;20023;-69
2022/09/16 11:48:06;;;;;;;2.88;0.85;;;22.90;59.40;;;;;;5088540;28;20523;-70
2022/09/16 11:50:51;;;;;;;4.05;1.00;;;22.30;57.00;;;;;;5086864;28;20043;-69
2022/09/16 11:53:50;;;;;;;3.38;0.90;;;21.20;59.30;;;;;;5084637;28;20038;-70
2022/09/16 11:56:31;;;;;;;;;;;19.80;61.40;;;;;;5099926;28;20063;-71
2022/09/16 11:59:22;;;;;;;4.22;1.00;;;18.90;64.40;;;;;;5072504;28;19951;-74
2022/09/16 12:01:57;;;;;;;4.57;1.20;;;18.20;67.50;;;;;;5104754;28;20028;-70
2022/09/16 12:04:36;;;;;;;2.67;0.90;;;17.80;69.90;;;;;;5111059;28;20042;-73
2022/09/16 12:07:11;;;;;;;1.10;0.70;;;17.60;70.00;;;;;;5111121;28;20073;-71
2022/09/16 12:09:44;;;;;;;3.92;1.10;;;17.30;71.10;;;;;;5110443;28;20042;-71
2022/09/16 12:12:15;;;;;;;5.85;1.15;;;16.90;72.20;;;;;;5110866;28;20493;-71
2022/09/16 12:14:45;;;;;;;3.28;1.02;;;16.60;73.80;;;;;;5090349;28;20024;-70
2022/09/16 12:17:19;;;;;;;2.90;0.90;;;16.40;75.90;;;;;;5087936;28;20023;-74
2022/09/16 12:20:17;;;;;;;5.70;1.10;;;16.20;77.90;;;;;;5091687;28;20178;-70
2022/09/16 12:22:51;;;;;;;2.80;0.80;;;16.50;79.50;;;;;;5071919;28;20036;-71
2022/09/16 12:25:24;;;;;;;2.80;0.80;;;16.80;76.90;;;;;;5075338;28;20131;-70
2022/09/16 12:28:01;;;;;;;3.13;0.90;;;16.80;73.40;;;;;;5109919;28;20070;-70
2022/09/16 12:30:40;;;;;;;6.32;0.90;;;16.70;74.30;;;;;;5098318;28;20039;-70
2022/09/16 12:33:26;;;;;;;4.20;1.00;;;16.60;75.90;;;;;;5083928;28;20024;-70
2022/09/16 12:36:04;;;;;;;4.10;1.00;;;16.40;76.40;;;;;;5087192;28;20342;-71
2022/09/16 12:38:30;;;;;;;1.50;0.70;;;16.30;77.60;;;;;;5103733;28;22313;-71
2022/09/16 12:41:05;;;;;;;2.40;0.80;;;16.10;77.80;;;;;;5104630;28;20487;-71
2022/09/16 12:43:57;;;;;;;6.30;1.20;;;16.30;79.50;;;;;;5104185;28;20067;-71
2022/09/16 12:46:34;;;;;;;4.20;0.90;;;16.70;80.70;;;;;;5104636;28;20031;-71
2022/09/16 12:49:18;;;;;;;2.40;0.70;;;17.10;78.00;;;;;;5106229;28;20027;-71
2022/09/16 12:51:56;;;;;;;4.60;1.35;;;17.20;75.30;;;;;;5102190;28;20032;-71
2022/09/16 12:54:50;;;;;;;3.30;1.10;;;17.10;74.30;;;;;;5109523;28;20496;-71
2022/09/16 12:57:32;;;;;;;3.95;1.05;;;16.90;74.20;;;;;;5100586;28;20099;-70
2022/09/16 13:00:20;;;;;;;2.95;1.05;;;16.60;74.80;;;;;;5109686;28;20043;-71
2022/09/16 13:02:51;;;;;;;2.55;1.05;;;16.40;75.50;;;;;;5096595;28;20093;-71
2022/09/16 13:05:27;;;;;;;4.15;1.20;;;16.30;78.80;;;;;;5090911;28;20020;-69
2022/09/16 13:07:59;;;;;;;1.65;0.80;;;16.70;77.50;;;;;;5098215;28;20089;-74
2022/09/16 13:10:34;;;;;;;4.80;1.00;;;17.20;72.40;;;;;;5097718;28;20043;-70
2022/09/16 13:13:02;;;;;;;3.53;0.75;;;17.60;69.50;;;;;;5101038;28;20043;-70
2022/09/16 13:15:33;;;;;;;2.58;0.88;;;17.50;67.60;;;;;;5100213;28;20039;-70
2022/09/16 13:18:22;;;;;;;2.30;1.10;;;17.20;68.80;;;;;;5082097;28;20036;-70
2022/09/16 13:20:56;;;;;;;2.25;1.02;;;17.00;68.40;;;;;;5090579;28;20030;-71